Time;durP1;ratioP1;P1;durP2;ratioP2;P2;SDS_P1;SDS_P2;PMS_P1;PMS_P2;Temp;Humidity;BMP_temperature;BMP_pressure;BME280_temperature;BME280_humidity;BME280_pressure;Samples;Min_cycle;Max_cycle;Signal;HPM_P1;HPM_P2
2021/01/13 00:01:30;;;;;;;262.92;140.35;;;103.20;1817.60;;;;;;4916270;29;20028;-68
2021/01/13 00:03:56;;;;;;;281.67;153.65;;;103.20;1792.00;;;;;;4915909;29;20036;-68
2021/01/13 00:06:22;;;;;;;286.85;172.73;;;103.00;1843.20;;;;;;4931535;29;20031;-68
2021/01/13 00:08:48;;;;;;;245.63;136.65;;;102.90;1971.20;;;;;;4935461;29;20028;-68
2021/01/13 00:11:17;;;;;;;240.52;135.05;;;102.60;1920.00;;;;;;4933842;29;20024;-69
2021/01/13 00:13:43;;;;;;;254.15;145.40;;;102.70;1894.40;;;;;;4935376;29;20103;-69
2021/01/13 00:16:13;;;;;;;256.63;136.88;;;102.70;1894.40;;;;;;4934894;29;20111;-67
2021/01/13 00:18:39;;;;;;;232.88;121.38;;;102.70;1894.40;;;;;;4934970;29;20019;-72
2021/01/13 00:21:05;;;;;;;223.93;123.72;;;103.00;1843.20;;;;;;4934976;29;20497;-67
2021/01/13 00:23:31;;;;;;;252.18;132.95;;;102.90;1843.20;;;;;;4935266;29;20107;-71
2021/01/13 00:25:57;;;;;;;255.77;136.40;;;103.10;1843.20;;;;;;4934881;29;20132;-68
2021/01/13 00:28:22;;;;;;;247.88;129.32;;;103.00;1843.20;;;;;;4920859;29;20024;-67
2021/01/13 00:30:48;;;;;;;236.02;122.13;;;103.10;1817.60;;;;;;4915583;29;20040;-69
2021/01/13 00:33:14;;;;;;;231.32;111.43;;;102.50;1945.60;;;;;;4915768;29;20028;-68
2021/01/13 00:35:39;;;;;;;226.75;116.70;;;77.00;2022.40;;;;;;4944220;29;20490;-69
2021/01/13 00:38:05;;;;;;;196.32;99.97;;;76.80;2073.60;;;;;;4938483;29;20103;-69
2021/01/13 00:40:31;;;;;;;191.25;98.93;;;76.90;2073.60;;;;;;4909563;29;20491;-67
2021/01/13 00:42:57;;;;;;;194.98;97.45;;;77.30;2022.40;;;;;;4910176;29;20020;-69
2021/01/13 00:45:22;;;;;;;183.57;90.68;;;77.50;1971.20;;;;;;4909690;29;20056;-67
2021/01/13 00:47:51;;;;;;;195.75;92.57;;;77.40;1971.20;;;;;;4908603;29;20020;-70
2021/01/13 00:50:17;;;;;;;203.73;101.70;;;77.30;1971.20;;;;;;4916743;29;20483;-69
2021/01/13 00:52:48;;;;;;;171.07;81.47;;;77.60;1971.20;;;;;;4918596;29;20031;-71
2021/01/13 00:55:14;;;;;;;158.77;75.25;;;77.70;1945.60;;;;;;4919211;29;20032;-71
2021/01/13 00:57:40;;;;;;;156.57;76.40;;;77.10;1996.80;;;;;;4919367;29;20530;-71
2021/01/13 01:00:06;;;;;;;164.32;80.93;;;77.30;1996.80;;;;;;4917401;29;20048;-72
2021/01/13 01:02:32;;;;;;;176.70;87.35;;;77.40;1971.20;;;;;;4917993;29;20035;-72
2021/01/13 01:04:58;;;;;;;195.45;86.88;;;77.40;1971.20;;;;;;4918928;29;20041;-72
2021/01/13 01:07:23;;;;;;;180.23;81.22;;;77.30;1996.80;;;;;;4919254;29;20051;-73
2021/01/13 01:09:50;;;;;;;194.95;92.85;;;52.10;2073.60;;;;;;4918943;29;20156;-72
2021/01/13 01:12:16;;;;;;;192.50;90.03;;;51.90;2124.80;;;;;;4919266;29;20021;-72
2021/01/13 01:14:41;;;;;;;181.68;88.50;;;51.80;2150.40;;;;;;4918859;29;20045;-73
2021/01/13 01:17:11;;;;;;;178.48;83.70;;;52.00;2124.80;;;;;;4918806;29;20028;-72
2021/01/13 01:19:40;;;;;;;161.82;76.47;;;51.90;2124.80;;;;;;4918901;29;20032;-72
2021/01/13 01:22:06;;;;;;;138.52;68.68;;;51.70;2099.20;;;;;;4918760;29;20032;-73
2021/01/13 01:24:31;;;;;;;141.15;72.05;;;51.50;2124.80;;;;;;4918966;29;20146;-72
2021/01/13 01:26:57;;;;;;;162.50;83.20;;;51.60;2124.80;;;;;;4918501;29;20119;-73
2021/01/13 01:29:24;;;;;;;145.52;70.25;;;51.30;2150.40;;;;;;4918830;29;20040;-73
2021/01/13 01:31:50;;;;;;;153.88;76.00;;;51.50;2150.40;;;;;;4917398;29;20059;-74
2021/01/13 01:34:17;;;;;;;167.20;81.72;;;51.90;2124.80;;;;;;4918291;29;20525;-74
2021/01/13 01:36:42;;;;;;;173.45;80.57;;;52.10;2073.60;;;;;;4918413;29;20028;-74
2021/01/13 01:39:08;;;;;;;167.57;82.10;;;76.90;2048.00;;;;;;4918631;29;20505;-74
2021/01/13 01:41:33;;;;;;;153.73;76.05;;;77.30;1996.80;;;;;;4918479;29;20035;-74
2021/01/13 01:43:59;;;;;;;161.15;77.55;;;77.50;1945.60;;;;;;4918394;29;20028;-74
2021/01/13 01:46:25;;;;;;;156.25;75.60;;;77.50;1945.60;;;;;;4918066;29;20442;-74
2021/01/13 01:48:56;;;;;;;168.05;80.82;;;77.40;1945.60;;;;;;4918142;29;20024;-74
2021/01/13 01:51:44;;;;;;;168.80;75.65;;;77.20;1971.20;;;;;;4918536;29;20020;-72
2021/01/13 01:54:17;;;;;;;164.57;74.55;;;77.40;1945.60;;;;;;4918341;29;20107;-74
2021/01/13 01:56:44;;;;;;;149.68;73.97;;;52.00;2048.00;;;;;;4917115;29;20446;-68
2021/01/13 01:59:15;;;;;;;145.23;69.63;;;51.90;2073.60;;;;;;4918438;29;20047;-73
2021/01/13 02:01:51;;;;;;;133.65;65.97;;;52.10;2048.00;;;;;;4918049;29;20024;-72
2021/01/13 02:04:27;;;;;;;148.73;69.30;;;51.60;2073.60;;;;;;4917895;29;20036;-76
2021/01/13 02:06:59;;;;;;;149.18;70.43;;;51.80;2048.00;;;;;;4918099;29;20107;-77
2021/01/13 02:09:26;;;;;;;134.10;66.97;;;76.90;2022.40;;;;;;4917807;29;20040;-78
2021/01/13 02:11:59;;;;;;;121.53;56.80;;;51.70;2048.00;;;;;;4901379;29;20079;-77
2021/01/13 02:14:29;;;;;;;116.22;57.45;;;51.20;2124.80;;;;;;4917721;29;20028;-77
2021/01/13 02:16:56;;;;;;;104.82;52.85;;;51.90;2022.40;;;;;;4918041;29;20485;-78
2021/01/13 02:19:47;;;;;;;115.18;55.08;;;52.10;1996.80;;;;;;4916819;29;20495;-77
2021/01/13 02:22:14;;;;;;;121.40;56.58;;;77.10;1945.60;;;;;;4918034;29;20028;-76
2021/01/13 02:25:01;;;;;;;111.72;53.25;;;77.20;1920.00;;;;;;4917716;29;20059;-77
2021/01/13 02:27:45;;;;;;;122.93;58.15;;;76.90;1971.20;;;;;;4917536;29;20483;-77
2021/01/13 02:30:15;;;;;;;101.93;52.78;;;76.90;1920.00;;;;;;4917401;29;20035;-72
2021/01/13 02:32:47;;;;;;;119.05;55.30;;;77.20;1894.40;;;;;;4917573;29;20111;-75
2021/01/13 02:35:19;;;;;;;112.38;55.03;;;77.30;1868.80;;;;;;4917243;29;20044;-75
2021/01/13 02:37:47;;;;;;;106.80;51.28;;;77.50;1868.80;;;;;;4917379;29;20050;-75
2021/01/13 02:40:22;;;;;;;102.32;52.67;;;77.30;1868.80;;;;;;4917485;29;20031;-75
2021/01/13 02:43:09;;;;;;;111.07;55.65;;;77.30;1868.80;;;;;;4917298;29;20028;-75
2021/01/13 02:45:58;;;;;;;134.15;62.95;;;77.40;1894.40;;;;;;4917164;29;20032;-75
2021/01/13 02:48:24;;;;;;;140.35;67.03;;;77.40;1894.40;;;;;;4915872;29;20542;-71
2021/01/13 02:50:57;;;;;;;153.88;68.07;;;77.00;1920.00;;;;;;4917086;29;20040;-71
2021/01/13 02:53:46;;;;;;;130.85;60.08;;;76.80;1945.60;;;;;;4917157;29;20032;-71
2021/01/13 02:56:27;;;;;;;119.85;58.60;;;77.00;1920.00;;;;;;4877338;29;20068;-71
2021/01/13 02:59:05;;;;;;;117.90;55.80;;;77.20;1868.80;;;;;;4877409;29;20033;-71
2021/01/13 03:01:33;;;;;;;107.80;53.17;;;77.10;1894.40;;;;;;4877162;29;20069;-71
2021/01/13 03:04:00;;;;;;;118.32;55.47;;;77.30;1868.80;;;;;;4877245;29;20053;-70
2021/01/13 03:06:28;;;;;;;121.32;54.53;;;51.80;1945.60;;;;;;4877243;29;20089;-71
2021/01/13 03:09:06;;;;;;;126.93;58.17;;;52.10;1920.00;;;;;;4877439;29;20081;-72
2021/01/13 03:11:33;;;;;;;113.05;54.90;;;77.10;1868.80;;;;;;4877676;29;20033;-71
2021/01/13 03:14:09;;;;;;;129.40;58.45;;;77.20;1843.20;;;;;;4877300;29;20037;-71
2021/01/13 03:16:39;;;;;;;126.47;57.60;;;77.10;1868.80;;;;;;4877318;29;20043;-71
2021/01/13 03:19:14;;;;;;;130.73;63.90;;;77.40;1843.20;;;;;;4876821;29;20487;-71
2021/01/13 03:21:43;;;;;;;122.97;60.88;;;77.30;1817.60;;;;;;4877144;29;20272;-71
2021/01/13 03:24:12;;;;;;;132.75;63.38;;;77.40;1817.60;;;;;;4877402;29;20040;-71
2021/01/13 03:26:43;;;;;;;128.27;64.30;;;77.30;1817.60;;;;;;4877074;29;20048;-71
2021/01/13 03:29:10;;;;;;;150.80;72.07;;;77.20;1843.20;;;;;;4877131;29;20037;-71
2021/01/13 03:32:10;;;;;;;137.07;68.22;;;76.80;1868.80;;;;;;4876938;29;20809;-71
2021/01/13 03:35:06;;;;;;;111.55;53.88;;;76.80;1894.40;;;;;;4915629;29;20092;-72
2021/01/13 03:38:00;;;;;;;116.30;57.80;;;76.90;1894.40;;;;;;4916497;29;20052;-71
2021/01/13 03:40:30;;;;;;;133.43;63.70;;;77.00;1894.40;;;;;;4916379;29;20021;-71
2021/01/13 03:42:58;;;;;;;119.80;61.53;;;77.20;1868.80;;;;;;4916414;29;20128;-71
2021/01/13 03:45:53;;;;;;;125.10;60.60;;;77.30;1843.20;;;;;;4916428;29;20024;-70
2021/01/13 03:48:48;;;;;;;130.23;64.18;;;77.30;1843.20;;;;;;4916365;29;20036;-71
2021/01/13 03:51:34;;;;;;;118.53;60.72;;;77.50;1817.60;;;;;;4916841;29;20061;-71
2021/01/13 03:54:03;;;;;;;124.40;67.18;;;77.50;1817.60;;;;;;4916267;29;20043;-70
2021/01/13 03:56:29;;;;;;;124.28;66.32;;;77.60;1817.60;;;;;;4916184;29;20025;-71
2021/01/13 03:59:02;;;;;;;120.97;64.07;;;77.50;1817.60;;;;;;4915380;29;20028;-78
2021/01/13 04:01:47;;;;;;;127.75;68.85;;;77.50;1817.60;;;;;;4916304;29;20028;-70
2021/01/13 04:04:32;;;;;;;126.75;66.43;;;76.90;1868.80;;;;;;4916023;29;20032;-73
2021/01/13 04:07:00;;;;;;;135.30;68.90;;;76.90;1894.40;;;;;;4915224;29;20111;-69
2021/01/13 04:09:27;;;;;;;137.77;70.65;;;76.90;1894.40;;;;;;4919033;29;20036;-70
2021/01/13 04:12:10;;;;;;;133.80;71.20;;;77.20;1868.80;;;;;;4920155;29;20064;-71
2021/01/13 04:14:51;;;;;;;126.18;65.88;;;77.20;1843.20;;;;;;4920237;29;20032;-71
2021/01/13 04:17:18;;;;;;;114.25;59.90;;;77.40;1817.60;;;;;;4920020;29;20483;-71
2021/01/13 04:19:46;;;;;;;106.43;54.92;;;77.40;1817.60;;;;;;4919936;29;20103;-71
2021/01/13 04:22:17;;;;;;;101.10;54.60;;;52.10;1868.80;;;;;;4919856;29;20027;-70
2021/01/13 04:24:45;;;;;;;111.15;54.72;;;76.90;1868.80;;;;;;4919611;29;20056;-71
2021/01/13 04:27:13;;;;;;;103.80;55.03;;;76.80;1868.80;;;;;;4919865;29;20036;-70
2021/01/13 04:29:39;;;;;;;113.60;56.22;;;52.00;1920.00;;;;;;4919611;29;20036;-71
2021/01/13 04:32:07;;;;;;;116.22;58.38;;;76.80;1894.40;;;;;;4919813;29;20048;-71
2021/01/13 04:34:33;;;;;;;120.60;62.30;;;52.00;1894.40;;;;;;4919232;29;20074;-70
2021/01/13 04:37:02;;;;;;;111.70;56.28;;;51.40;1996.80;;;;;;4919703;29;20024;-70
2021/01/13 04:39:29;;;;;;;117.97;59.63;;;51.60;1971.20;;;;;;4919433;29;20024;-72
2021/01/13 04:41:59;;;;;;;125.47;62.53;;;51.60;1945.60;;;;;;4919042;29;20111;-70
2021/01/13 04:44:30;;;;;;;114.55;62.38;;;51.70;1945.60;;;;;;4919513;29;20062;-70
2021/01/13 04:47:09;;;;;;;104.73;54.73;;;52.00;1894.40;;;;;;4919311;29;20451;-70
2021/01/13 04:49:36;;;;;;;111.78;58.33;;;52.10;1894.40;;;;;;4919287;29;20039;-70
2021/01/13 04:52:09;;;;;;;98.10;52.08;;;52.00;1920.00;;;;;;4919338;29;20107;-71
2021/01/13 04:54:37;;;;;;;116.10;57.58;;;51.90;1894.40;;;;;;4919220;29;20375;-71
2021/01/13 04:57:44;;;;;;;126.43;67.15;;;52.10;1894.40;;;;;;4919343;29;20523;-72
2021/01/13 05:00:11;;;;;;;111.53;56.58;;;51.90;1920.00;;;;;;4912274;29;20521;-72
2021/01/13 05:03:06;;;;;;;145.68;73.30;;;26.50;1971.20;;;;;;4919012;29;20435;-72
2021/01/13 05:05:45;;;;;;;135.30;67.13;;;26.50;1996.80;;;;;;4918805;29;20527;-70
2021/01/13 05:08:23;;;;;;;107.03;56.42;;;26.20;2022.40;;;;;;4919043;29;20032;-71
2021/01/13 05:10:55;;;;;;;95.43;49.83;;;26.10;2048.00;;;;;;4918749;29;20040;-71
2021/01/13 05:13:24;;;;;;;107.28;56.65;;;26.20;2048.00;;;;;;4919172;29;20020;-71
2021/01/13 05:15:57;;;;;;;115.30;61.70;;;51.30;1996.80;;;;;;4918977;29;20028;-71
2021/01/13 05:18:43;;;;;;;103.95;54.67;;;51.60;1971.20;;;;;;4918788;29;20024;-71
2021/01/13 05:21:17;;;;;;;87.82;48.85;;;51.70;1945.60;;;;;;4918362;29;20407;-71
2021/01/13 05:23:55;;;;;;;85.13;46.70;;;52.00;1920.00;;;;;;4919172;29;20028;-71
2021/01/13 05:26:27;;;;;;;92.70;49.30;;;51.60;1945.60;;;;;;4918839;29;20016;-71
2021/01/13 05:29:15;;;;;;;97.40;50.85;;;51.30;1996.80;;;;;;4918840;29;20032;-70
2021/01/13 05:31:45;;;;;;;98.63;53.03;;;26.50;1996.80;;;;;;4919114;29;20077;-71
2021/01/13 05:34:16;;;;;;;100.95;55.53;;;26.20;2048.00;;;;;;4917903;29;20566;-70
2021/01/13 05:36:53;;;;;;;126.90;66.18;;;26.20;2022.40;;;;;;4918179;29;20032;-71
2021/01/13 05:39:23;;;;;;;155.13;87.15;;;51.20;2022.40;;;;;;4918290;29;20627;-71
2021/01/13 05:41:49;;;;;;;145.55;80.00;;;51.30;2022.40;;;;;;4918499;29;20091;-71
2021/01/13 05:44:15;;;;;;;136.88;78.35;;;51.40;1996.80;;;;;;4918669;29;20115;-71
2021/01/13 05:46:46;;;;;;;108.15;58.72;;;51.30;2022.40;;;;;;4918227;29;20032;-71
2021/01/13 05:49:13;;;;;;;117.70;61.83;;;51.20;2022.40;;;;;;4918327;29;20036;-71
2021/01/13 05:51:41;;;;;;;116.43;66.22;;;51.30;1996.80;;;;;;4918197;29;20056;-72
2021/01/13 05:54:15;;;;;;;94.50;56.13;;;51.60;1971.20;;;;;;4918304;29;20107;-70
2021/01/13 05:56:41;;;;;;;97.47;53.17;;;76.80;1945.60;;;;;;4918050;29;20029;-71
2021/01/13 05:59:09;;;;;;;91.03;52.08;;;52.00;1945.60;;;;;;4918092;29;20471;-71
2021/01/13 06:01:50;;;;;;;103.47;57.47;;;51.70;1945.60;;;;;;4918324;29;20021;-71
2021/01/13 06:04:17;;;;;;;105.97;61.63;;;51.60;1971.20;;;;;;4917784;29;20123;-69
2021/01/13 06:06:58;;;;;;;123.63;70.55;;;51.50;1996.80;;;;;;4918203;29;20024;-70
2021/01/13 06:09:24;;;;;;;136.00;75.97;;;51.20;2022.40;;;;;;4917994;29;20403;-70
2021/01/13 06:11:52;;;;;;;148.98;81.80;;;51.80;1996.80;;;;;;4917834;29;20402;-70
2021/01/13 06:14:26;;;;;;;135.02;71.40;;;77.00;1894.40;;;;;;4918159;29;20020;-70
2021/01/13 06:16:53;;;;;;;142.13;79.28;;;52.00;1920.00;;;;;;4917736;29;20119;-70
2021/01/13 06:19:20;;;;;;;151.50;86.55;;;77.00;1920.00;;;;;;4917500;29;20024;-70
2021/01/13 06:21:47;;;;;;;144.45;79.88;;;77.20;1868.80;;;;;;4917622;29;20498;-69
2021/01/13 06:24:14;;;;;;;148.05;79.30;;;77.10;1868.80;;;;;;4917616;29;20115;-70
2021/01/13 06:27:14;;;;;;;156.32;88.70;;;77.50;1843.20;;;;;;4932277;29;20119;-71
2021/01/13 06:30:00;;;;;;;154.55;88.82;;;77.70;1817.60;;;;;;4914469;29;20055;-71
2021/01/13 06:32:53;;;;;;;138.10;84.47;;;102.40;1817.60;;;;;;4916309;29;20024;-71
2021/01/13 06:35:37;;;;;;;139.23;79.53;;;77.60;1817.60;;;;;;4915302;29;20056;-70
2021/01/13 06:38:07;;;;;;;129.18;68.07;;;77.70;1843.20;;;;;;4932128;29;20391;-71
2021/01/13 06:40:33;;;;;;;119.47;70.22;;;77.60;1843.20;;;;;;4917133;29;20107;-71
2021/01/13 06:43:12;;;;;;;122.15;70.25;;;77.00;1920.00;;;;;;4917275;29;20103;-71
2021/01/13 06:45:38;;;;;;;165.90;105.28;;;52.00;1971.20;;;;;;4916220;29;20034;-70
2021/01/13 06:48:05;;;;;;;136.35;75.70;;;51.90;1971.20;;;;;;4917144;29;20107;-71
2021/01/13 06:50:39;;;;;;;93.18;49.78;;;51.80;1996.80;;;;;;4917024;29;20063;-70
2021/01/13 06:53:11;;;;;;;97.47;54.53;;;51.50;1996.80;;;;;;4915523;29;20103;-70
2021/01/13 06:55:38;;;;;;;93.57;52.42;;;51.50;1996.80;;;;;;4916846;29;20039;-70
2021/01/13 06:58:22;;;;;;;92.03;50.70;;;51.40;2022.40;;;;;;4916919;29;20099;-70
2021/01/13 07:00:59;;;;;;;84.97;47.80;;;51.30;2048.00;;;;;;4917037;29;20517;-70
2021/01/13 07:03:29;;;;;;;91.00;48.30;;;51.50;2048.00;;;;;;4917018;29;20028;-70
2021/01/13 07:05:56;;;;;;;94.50;51.70;;;76.90;1945.60;;;;;;4916577;29;20032;-71
2021/01/13 07:08:22;;;;;;;117.35;62.72;;;77.10;1920.00;;;;;;4916842;29;20386;-70
2021/01/13 07:10:59;;;;;;;103.78;56.45;;;76.90;1920.00;;;;;;4916777;29;20040;-70
2021/01/13 07:13:28;;;;;;;106.38;56.72;;;76.90;1920.00;;;;;;4916750;29;20031;-70
2021/01/13 07:16:01;;;;;;;99.35;56.10;;;52.10;1945.60;;;;;;4916838;29;20028;-70
2021/01/13 07:18:28;;;;;;;116.00;63.63;;;76.80;1945.60;;;;;;4916647;29;20475;-70
2021/01/13 07:20:54;;;;;;;121.80;69.18;;;77.20;1920.00;;;;;;4916618;29;20467;-70
2021/01/13 07:23:21;;;;;;;128.77;73.15;;;77.50;1868.80;;;;;;4916662;29;20020;-70
2021/01/13 07:25:48;;;;;;;135.40;76.35;;;102.40;1843.20;;;;;;4916585;29;20028;-71
2021/01/13 07:28:15;;;;;;;140.88;79.82;;;102.60;1817.60;;;;;;4916725;29;20048;-71
2021/01/13 07:30:42;;;;;;;136.75;79.60;;;102.60;1817.60;;;;;;4916352;29;20087;-73
2021/01/13 07:33:19;;;;;;;112.25;65.63;;;102.90;1792.00;;;;;;4916508;29;20026;-73
2021/01/13 07:35:46;;;;;;;138.45;81.20;;;102.40;1817.60;;;;;;4915483;29;20107;-73
2021/01/13 07:38:18;;;;;;;142.52;83.40;;;102.40;1843.20;;;;;;4916658;29;20020;-73
2021/01/13 07:40:49;;;;;;;135.45;79.70;;;77.40;1894.40;;;;;;4916683;29;20060;-73
2021/01/13 07:43:39;;;;;;;120.70;77.22;;;77.60;1894.40;;;;;;4915838;29;20028;-71
2021/01/13 07:46:16;;;;;;;143.23;85.60;;;77.70;1868.80;;;;;;4916511;29;20032;-71
2021/01/13 07:49:16;;;;;;;143.15;88.00;;;77.60;1894.40;;;;;;4916595;29;20484;-71
2021/01/13 07:51:55;;;;;;;273.80;151.90;;;77.70;1920.00;;;;;;4916066;29;20036;-71
2021/01/13 07:54:28;;;;;;;548.67;331.73;;;102.80;1868.80;;;;;;4916338;29;20032;-70
2021/01/13 07:57:00;;;;;;;814.17;483.48;;;102.90;1843.20;;;;;;4916661;29;20055;-71
2021/01/13 07:59:35;;;;;;;463.60;292.50;;;102.90;1868.80;;;;;;4916371;29;20372;-69
2021/01/13 08:02:28;;;;;;;439.40;263.27;;;103.10;1817.60;;;;;;4916249;29;20068;-70
2021/01/13 08:05:00;;;;;;;337.15;194.23;;;128.00;1843.20;;;;;;4916197;29;20032;-69
2021/01/13 08:07:39;;;;;;;238.68;145.63;;;128.00;1817.60;;;;;;4915898;29;20032;-69
2021/01/13 08:10:06;;;;;;;315.35;208.98;;;128.00;1843.20;;;;;;4915901;29;20059;-69
2021/01/13 08:13:24;;;;;;;172.23;109.38;;;128.40;1792.00;;;;;;4916364;29;20020;-69
2021/01/13 08:16:24;;;;;;;183.20;116.90;;;103.10;1817.60;;;;;;4876590;29;20044;-71
2021/01/13 08:19:10;;;;;;;283.17;199.88;;;103.10;1843.20;;;;;;4876438;29;20079;-70
2021/01/13 08:22:00;;;;;;;230.68;154.52;;;128.20;1843.20;;;;;;4876362;29;20488;-72
2021/01/13 08:24:30;;;;;;;208.82;136.15;;;128.60;1792.00;;;;;;4876245;29;20484;-70
2021/01/13 08:27:03;;;;;;;419.38;283.15;;;128.80;1766.40;;;;;;4876499;29;20130;-70
2021/01/13 08:29:35;;;;;;;360.20;226.95;;;128.80;1766.40;;;;;;4876173;29;20602;-71
2021/01/13 08:32:08;;;;;;;433.08;281.48;;;128.90;1792.00;;;;;;4876356;29;20033;-71
2021/01/13 08:34:45;;;;;;;250.85;178.82;;;153.60;1766.40;;;;;;4876199;29;20080;-71
2021/01/13 08:37:12;;;;;;;210.63;143.73;;;128.90;1766.40;;;;;;4876262;29;20025;-70
2021/01/13 08:39:41;;;;;;;158.55;103.32;;;128.70;1817.60;;;;;;4876348;29;20523;-71
2021/01/13 08:42:25;;;;;;;125.18;85.18;;;128.70;1792.00;;;;;;4876399;29;20167;-70
2021/01/13 08:44:56;;;;;;;107.00;72.10;;;128.80;1792.00;;;;;;4876186;29;20045;-72
2021/01/13 08:47:23;;;;;;;99.93;69.68;;;153.60;1766.40;;;;;;4876108;29;20889;-71
2021/01/13 08:49:50;;;;;;;118.20;82.72;;;128.90;1792.00;;;;;;4876094;29;20048;-71
2021/01/13 08:52:18;;;;;;;119.63;82.55;;;153.90;1766.40;;;;;;4910004;29;20479;-71
2021/01/13 08:54:48;;;;;;;113.95;74.85;;;153.80;1792.00;;;;;;4915943;29;20032;-71
2021/01/13 08:57:15;;;;;;;127.32;84.72;;;153.90;1766.40;;;;;;4919108;29;20048;-74
2021/01/13 08:59:42;;;;;;;135.40;94.00;;;153.90;1766.40;;;;;;4919179;29;20067;-73
2021/01/13 09:02:18;;;;;;;146.40;101.57;;;154.10;1766.40;;;;;;4918957;29;20124;-72
2021/01/13 09:05:02;;;;;;;142.23;99.78;;;154.30;2227.20;;;;;;4918951;29;20043;-71
2021/01/13 09:07:43;;;;;;;128.43;82.53;;;154.40;1715.20;;;;;;4918903;29;20088;-72
2021/01/13 09:10:11;;;;;;;111.32;72.68;;;154.30;1715.20;;;;;;4918732;29;20036;-71
2021/01/13 09:12:45;;;;;;;123.90;77.43;;;154.20;1715.20;;;;;;4918952;29;20064;-71
2021/01/13 09:15:12;;;;;;;122.43;78.00;;;154.10;1715.20;;;;;;4919031;29;20517;-72
2021/01/13 09:17:42;;;;;;;104.78;70.20;;;154.10;1740.80;;;;;;4918496;29;20028;-72
2021/01/13 09:20:14;;;;;;;112.03;72.28;;;154.20;1740.80;;;;;;4917957;29;20028;-70
2021/01/13 09:22:50;;;;;;;96.85;62.83;;;153.90;1740.80;;;;;;4914506;29;20028;-69
2021/01/13 09:25:27;;;;;;;97.95;62.80;;;154.00;1715.20;;;;;;4918269;29;20036;-75
2021/01/13 09:27:53;;;;;;;96.80;61.33;;;153.90;1766.40;;;;;;4918167;29;20088;-73
2021/01/13 09:30:29;;;;;;;100.15;60.80;;;153.70;1792.00;;;;;;4917851;29;20039;-71
2021/01/13 09:32:57;;;;;;;115.55;73.68;;;153.60;1792.00;;;;;;4913767;29;20017;-71
2021/01/13 09:35:27;;;;;;;119.65;76.75;;;128.70;1817.60;;;;;;4909117;29;20056;-71
2021/01/13 09:37:58;;;;;;;121.45;80.55;;;153.70;1817.60;;;;;;4915615;29;20032;-74
2021/01/13 09:40:53;;;;;;;116.55;75.65;;;154.00;1766.40;;;;;;4918167;29;20028;-71
2021/01/13 09:43:31;;;;;;;95.20;62.53;;;153.90;1792.00;;;;;;4916282;29;20055;-72
2021/01/13 09:45:59;;;;;;;86.60;53.13;;;153.60;1792.00;;;;;;4917343;29;20028;-72
2021/01/13 09:48:27;;;;;;;68.05;44.35;;;128.90;1817.60;;;;;;4917841;29;20032;-71
2021/01/13 09:51:06;;;;;;;65.13;41.03;;;128.90;1817.60;;;;;;4917482;29;20052;-74
2021/01/13 09:53:49;;;;;;;69.57;43.75;;;153.70;1792.00;;;;;;4917725;29;20171;-69
2021/01/13 09:56:15;;;;;;;61.22;42.25;;;154.00;1766.40;;;;;;4915796;29;20542;-71
2021/01/13 09:58:43;;;;;;;65.97;41.67;;;153.80;1766.40;;;;;;4917768;29;20032;-71
2021/01/13 10:01:13;;;;;;;66.10;42.00;;;128.80;1817.60;;;;;;4918155;29;20490;-73
2021/01/13 10:03:41;;;;;;;51.50;30.85;;;128.90;1868.80;;;;;;4917708;29;20399;-71
2021/01/13 10:06:23;;;;;;;59.30;35.75;;;128.90;1843.20;;;;;;4917292;29;20038;-78
2021/01/13 10:08:51;;;;;;;74.13;46.40;;;153.70;1843.20;;;;;;4917849;29;20058;-81
2021/01/13 10:11:19;;;;;;;51.53;31.63;;;128.90;1843.20;;;;;;4917292;29;20082;-71
2021/01/13 10:13:51;;;;;;;66.15;39.92;;;128.50;1868.80;;;;;;4917495;29;20020;-69
2021/01/13 10:16:17;;;;;;;75.70;48.63;;;128.80;1868.80;;;;;;4917151;29;20048;-71
2021/01/13 10:19:02;;;;;;;66.68;43.17;;;128.90;1868.80;;;;;;4917303;29;20565;-70
2021/01/13 10:21:34;;;;;;;61.33;40.70;;;153.60;1843.20;;;;;;4916872;29;20028;-70
2021/01/13 10:24:07;;;;;;;66.88;43.72;;;153.70;1843.20;;;;;;4917550;29;20076;-71
2021/01/13 10:26:43;;;;;;;51.83;33.47;;;153.70;1817.60;;;;;;4917495;29;20032;-70
2021/01/13 10:29:11;;;;;;;67.60;42.95;;;153.80;1817.60;;;;;;4917206;29;20032;-70
2021/01/13 10:31:38;;;;;;;75.20;47.55;;;153.90;1817.60;;;;;;4917187;29;20059;-70
2021/01/13 10:34:04;;;;;;;96.22;57.78;;;154.00;1792.00;;;;;;4917079;29;20126;-70
2021/01/13 10:36:32;;;;;;;68.35;41.58;;;154.00;1817.60;;;;;;4916950;29;20055;-69
2021/01/13 10:39:07;;;;;;;64.57;38.42;;;154.00;1792.00;;;;;;4917173;29;20434;-70
2021/01/13 10:41:36;;;;;;;81.20;47.80;;;154.30;1766.40;;;;;;4917015;29;20039;-70
2021/01/13 10:44:11;;;;;;;96.25;60.40;;;179.20;1740.80;;;;;;4917182;29;20020;-70
2021/01/13 10:46:57;;;;;;;75.45;46.75;;;179.30;1715.20;;;;;;4917233;29;20055;-70
2021/01/13 10:49:38;;;;;;;77.03;53.30;;;154.50;1715.20;;;;;;4916823;29;20028;-69
2021/01/13 10:52:05;;;;;;;66.80;43.75;;;154.40;1740.80;;;;;;4916526;29;20039;-69
2021/01/13 10:54:34;;;;;;;64.65;42.80;;;154.50;1766.40;;;;;;4916873;29;20020;-70
2021/01/13 10:57:05;;;;;;;66.43;42.38;;;179.30;1740.80;;;;;;4916959;29;20411;-70
2021/01/13 10:59:32;;;;;;;67.47;39.72;;;179.50;1740.80;;;;;;4916966;29;20028;-70
2021/01/13 11:02:16;;;;;;;66.32;41.85;;;179.60;1740.80;;;;;;4916604;29;20075;-70
2021/01/13 11:04:44;;;;;;;68.55;42.45;;;179.70;1689.60;;;;;;4916813;29;20040;-70
2021/01/13 11:07:18;;;;;;;68.35;42.97;;;179.80;1715.20;;;;;;4916577;29;20474;-70
2021/01/13 11:09:49;;;;;;;59.75;37.83;;;179.50;1715.20;;;;;;4916383;29;20032;-70
2021/01/13 11:12:20;;;;;;;47.37;30.90;;;179.60;1715.20;;;;;;4917072;29;20024;-70
2021/01/13 11:14:48;;;;;;;79.97;52.20;;;179.70;1689.60;;;;;;4916607;29;20024;-70
2021/01/13 11:17:25;;;;;;;85.97;55.58;;;179.60;1715.20;;;;;;4916069;29;20770;-69
2021/01/13 11:19:55;;;;;;;63.22;45.05;;;179.60;1740.80;;;;;;4915027;29;20028;-70
2021/01/13 11:22:44;;;;;;;72.32;45.47;;;179.50;1715.20;;;;;;4915719;29;20083;-69
2021/01/13 11:25:22;;;;;;;60.92;37.22;;;179.60;1740.80;;;;;;4916310;29;20494;-70
2021/01/13 11:28:13;;;;;;;63.00;38.72;;;179.60;1740.80;;;;;;4914561;29;20494;-70
2021/01/13 11:30:40;;;;;;;51.08;31.75;;;179.60;1689.60;;;;;;4916639;29;20036;-70
2021/01/13 11:33:08;;;;;;;60.08;37.42;;;179.50;1715.20;;;;;;4914490;29;20032;-70
2021/01/13 11:35:50;;;;;;;48.25;30.98;;;179.40;1740.80;;;;;;4911790;29;20071;-70
2021/01/13 11:38:34;;;;;;;52.33;33.13;;;179.40;1715.20;;;;;;4916047;29;20036;-71
2021/01/13 11:41:27;;;;;;;62.05;39.40;;;179.50;1740.80;;;;;;4916051;29;20023;-70
2021/01/13 11:44:18;;;;;;;47.20;30.65;;;179.60;1715.20;;;;;;4916545;29;20427;-70
2021/01/13 11:46:53;;;;;;;68.65;44.28;;;179.50;1715.20;;;;;;4916289;29;20036;-70
2021/01/13 11:49:34;;;;;;;50.28;34.28;;;179.60;1715.20;;;;;;4916101;29;20025;-70
2021/01/13 11:52:09;;;;;;;51.92;30.98;;;179.60;1715.20;;;;;;4914881;29;20028;-70
2021/01/13 11:54:36;;;;;;;52.15;33.08;;;179.50;1715.20;;;;;;4916623;29;20072;-70
2021/01/13 11:57:25;;;;;;;48.13;30.23;;;179.50;1766.40;;;;;;4915986;29;20052;-70
2021/01/13 12:00:13;;;;;;;45.08;26.95;;;179.50;1740.80;;;;;;4915711;29;20032;-70
2021/01/13 12:02:40;;;;;;;69.72;43.50;;;179.40;1740.80;;;;;;4918615;29;20131;-70
2021/01/13 12:05:21;;;;;;;76.22;55.70;;;179.20;1740.80;;;;;;4916189;29;20039;-70
2021/01/13 12:08:18;;;;;;;57.33;37.47;;;179.30;1766.40;;;;;;4915889;29;20028;-70
2021/01/13 12:10:53;;;;;;;53.00;35.42;;;179.20;1740.80;;;;;;4915817;29;20040;-70
2021/01/13 12:13:26;;;;;;;49.67;31.83;;;179.30;1766.40;;;;;;4916325;29;20024;-70
2021/01/13 12:15:54;;;;;;;57.95;37.08;;;;;;;;;;4915995;29;20024;-71
2021/01/13 12:18:33;;;;;;;57.17;40.63;;;179.70;1715.20;;;;;;4916203;29;20021;-70
2021/01/13 12:21:02;;;;;;;54.35;36.70;;;179.90;1664.00;;;;;;4916021;29;20554;-70
2021/01/13 12:23:36;;;;;;;56.63;38.00;;;179.90;1689.60;;;;;;4915650;29;20588;-70
2021/01/13 12:26:19;;;;;;;59.83;38.20;;;179.80;1689.60;;;;;;4916045;29;20096;-71